Decoded Metar for LEST (SANTIAGO in SPAIN) (IATA:SCQ) | Meteo·Mobile Aviation Weather
aviador You're here:

LEST Decoded Metar

SANTIAGO in SPAIN
Report Time2019-02-20 20:00:00
UTC Time2019-02-20 20:08:40
Flight Rules vfr VFR
Wind230° at 03 kt
W.Decomp.*RWY 17: 1.4 kt HW 2.7 kt RCW
W.Rank230° ranks 5
Current wind is below 230° avg. (7.7)
Visibility9999 m
Phenomena:N/A
Clouds:N/A
Expected CloudBase > 1,200 ft AGL from Temp-Dew spread
CeilingNone
Temp08°C (ISA -5)
Dew Point05°C (82% RH)
AAT5.8°C
QNH1023 hPa
Density Alt436 ft
Elevation1,204 ft
Report Wrong Elevation
Raw Report
METAR LEST 202000Z 23003KT 200V260 CAVOK 08/05 Q1023 NOSIG=

Extra information for LEST:More info

Metar Taf Metar & Taf Last 4 Metars F.Rules Stats Wind Profile Meteogram Temp Stats Airport Information Weather charts Add Link Nearby VenuesMetar ALERT Operation Metar Decoded Social comments